sensor_id;sensor_type;location;lat;lon;timestamp;temperature;humidity
26707;DHT22;14319;49.422;10.934;2022-10-12T00:00:29;12.10;89.80
26707;DHT22;14319;49.422;10.934;2022-10-12T00:02:30;12.20;89.30
26707;DHT22;14319;49.422;10.934;2022-10-12T00:04:30;12.30;89.30
26707;DHT22;14319;49.422;10.934;2022-10-12T00:06:31;12.30;89.40
26707;DHT22;14319;49.422;10.934;2022-10-12T00:08:32;12.30;89.50
26707;DHT22;14319;49.422;10.934;2022-10-12T00:10:33;12.30;88.70
26707;DHT22;14319;49.422;10.934;2022-10-12T00:12:39;12.30;89.00
26707;DHT22;14319;49.422;10.934;2022-10-12T00:14:39;12.30;89.00
26707;DHT22;14319;49.422;10.934;2022-10-12T00:16:40;12.30;89.30
26707;DHT22;14319;49.422;10.934;2022-10-12T00:18:41;12.30;88.60
26707;DHT22;14319;49.422;10.934;2022-10-12T00:20:41;12.30;89.10
26707;DHT22;14319;49.422;10.934;2022-10-12T00:22:42;12.30;89.40
26707;DHT22;14319;49.422;10.934;2022-10-12T00:24:43;12.30;89.00
26707;DHT22;14319;49.422;10.934;2022-10-12T00:26:44;12.20;89.10
26707;DHT22;14319;49.422;10.934;2022-10-12T00:28:44;12.20;89.50
26707;DHT22;14319;49.422;10.934;2022-10-12T00:30:45;12.10;88.60
26707;DHT22;14319;49.422;10.934;2022-10-12T00:32:46;12.00;89.30
26707;DHT22;14319;49.422;10.934;2022-10-12T00:34:47;11.90;89.40
26707;DHT22;14319;49.422;10.934;2022-10-12T00:42:48;11.80;90.40
26707;DHT22;14319;49.422;10.934;2022-10-12T00:44:49;11.70;90.40
26707;DHT22;14319;49.422;10.934;2022-10-12T00:46:50;11.80;90.30
26707;DHT22;14319;49.422;10.934;2022-10-12T00:51:04;11.70;90.50
26707;DHT22;14319;49.422;10.934;2022-10-12T00:53:08;11.80;90.60
26707;DHT22;14319;49.422;10.934;2022-10-12T00:55:11;11.80;90.80
26707;DHT22;14319;49.422;10.934;2022-10-12T00:57:14;11.80;90.20
26707;DHT22;14319;49.422;10.934;2022-10-12T00:59:17;11.90;90.40
26707;DHT22;14319;49.422;10.934;2022-10-12T01:01:19;11.90;90.60
26707;DHT22;14319;49.422;10.934;2022-10-12T01:03:20;11.90;90.00
26707;DHT22;14319;49.422;10.934;2022-10-12T01:05:21;11.90;90.20
26707;DHT22;14319;49.422;10.934;2022-10-12T01:07:22;12.00;90.80
26707;DHT22;14319;49.422;10.934;2022-10-12T01:09:23;12.00;89.90
26707;DHT22;14319;49.422;10.934;2022-10-12T01:11:24;12.00;89.70
26707;DHT22;14319;49.422;10.934;2022-10-12T01:13:25;12.00;90.00
26707;DHT22;14319;49.422;10.934;2022-10-12T01:15:27;11.90;90.20
26707;DHT22;14319;49.422;10.934;2022-10-12T01:21:42;11.70;90.20
26707;DHT22;14319;49.422;10.934;2022-10-12T01:23:47;11.80;90.30
26707;DHT22;14319;49.422;10.934;2022-10-12T01:28:47;11.90;89.50
26707;DHT22;14319;49.422;10.934;2022-10-12T01:34:51;11.70;89.40
26707;DHT22;14319;49.422;10.934;2022-10-12T01:36:57;11.70;89.40
26707;DHT22;14319;49.422;10.934;2022-10-12T01:39:03;11.50;90.30
26707;DHT22;14319;49.422;10.934;2022-10-12T01:43:09;11.40;90.50
26707;DHT22;14319;49.422;10.934;2022-10-12T01:45:13;11.40;90.30
26707;DHT22;14319;49.422;10.934;2022-10-12T01:47:14;11.30;90.90
26707;DHT22;14319;49.422;10.934;2022-10-12T01:49:15;11.30;91.00
26707;DHT22;14319;49.422;10.934;2022-10-12T01:51:21;11.20;90.50
26707;DHT22;14319;49.422;10.934;2022-10-12T01:53:26;11.10;91.20
26707;DHT22;14319;49.422;10.934;2022-10-12T01:55:42;11.10;91.90
26707;DHT22;14319;49.422;10.934;2022-10-12T01:57:52;10.90;92.20
26707;DHT22;14319;49.422;10.934;2022-10-12T02:04:20;11.10;91.20
26707;DHT22;14319;49.422;10.934;2022-10-12T02:06:27;11.10;90.60
26707;DHT22;14319;49.422;10.934;2022-10-12T02:10:38;10.80;91.60
26707;DHT22;14319;49.422;10.934;2022-10-12T02:12:40;10.70;92.00
26707;DHT22;14319;49.422;10.934;2022-10-12T02:14:45;10.70;92.20
26707;DHT22;14319;49.422;10.934;2022-10-12T02:16:50;10.70;91.80
26707;DHT22;14319;49.422;10.934;2022-10-12T02:18:51;10.70;91.50
26707;DHT22;14319;49.422;10.934;2022-10-12T02:20:53;10.60;91.80
26707;DHT22;14319;49.422;10.934;2022-10-12T02:22:57;10.60;91.90
26707;DHT22;14319;49.422;10.934;2022-10-12T02:24:58;10.70;91.80
26707;DHT22;14319;49.422;10.934;2022-10-12T02:27:01;10.70;91.40
26707;DHT22;14319;49.422;10.934;2022-10-12T02:29:02;10.70;91.20
26707;DHT22;14319;49.422;10.934;2022-10-12T02:33:08;10.70;90.70
26707;DHT22;14319;49.422;10.934;2022-10-12T02:35:13;10.70;90.60
26707;DHT22;14319;49.422;10.934;2022-10-12T02:39:27;10.60;91.40
26707;DHT22;14319;49.422;10.934;2022-10-12T02:41:29;10.60;91.40
26707;DHT22;14319;49.422;10.934;2022-10-12T02:43:36;10.60;90.70
26707;DHT22;14319;49.422;10.934;2022-10-12T02:45:39;10.60;90.80
26707;DHT22;14319;49.422;10.934;2022-10-12T02:47:41;10.40;91.80
26707;DHT22;14319;49.422;10.934;2022-10-12T02:49:42;10.20;93.40
26707;DHT22;14319;49.422;10.934;2022-10-12T02:51:43;10.20;92.30
26707;DHT22;14319;49.422;10.934;2022-10-12T02:53:44;10.20;92.10
26707;DHT22;14319;49.422;10.934;2022-10-12T02:55:52;10.20;91.90
26707;DHT22;14319;49.422;10.934;2022-10-12T02:57:53;10.10;91.80
26707;DHT22;14319;49.422;10.934;2022-10-12T02:59:54;10.10;91.50
26707;DHT22;14319;49.422;10.934;2022-10-12T03:01:54;10.00;91.60
26707;DHT22;14319;49.422;10.934;2022-10-12T03:03:55;9.90;91.90
26707;DHT22;14319;49.422;10.934;2022-10-12T03:05:56;9.90;93.00
26707;DHT22;14319;49.422;10.934;2022-10-12T03:07:57;10.00;92.70
26707;DHT22;14319;49.422;10.934;2022-10-12T03:09:57;10.00;92.60
26707;DHT22;14319;49.422;10.934;2022-10-12T03:11:58;10.00;93.00
26707;DHT22;14319;49.422;10.934;2022-10-12T03:13:59;10.00;92.60
26707;DHT22;14319;49.422;10.934;2022-10-12T03:16:03;10.00;91.00
26707;DHT22;14319;49.422;10.934;2022-10-12T03:18:06;10.00;91.40
26707;DHT22;14319;49.422;10.934;2022-10-12T03:20:07;10.00;91.10
26707;DHT22;14319;49.422;10.934;2022-10-12T03:22:08;10.00;91.40
26707;DHT22;14319;49.422;10.934;2022-10-12T03:24:09;10.10;91.60
26707;DHT22;14319;49.422;10.934;2022-10-12T03:26:10;10.20;91.40
26707;DHT22;14319;49.422;10.934;2022-10-12T03:28:10;10.20;90.30
26707;DHT22;14319;49.422;10.934;2022-10-12T03:30:11;10.10;90.20
26707;DHT22;14319;49.422;10.934;2022-10-12T03:32:12;10.10;90.20
26707;DHT22;14319;49.422;10.934;2022-10-12T03:34:15;10.00;89.90
26707;DHT22;14319;49.422;10.934;2022-10-12T03:36:16;9.90;91.10
26707;DHT22;14319;49.422;10.934;2022-10-12T03:38:16;9.80;90.80
26707;DHT22;14319;49.422;10.934;2022-10-12T03:40:17;9.80;90.60
26707;DHT22;14319;49.422;10.934;2022-10-12T03:42:17;9.80;90.60
26707;DHT22;14319;49.422;10.934;2022-10-12T03:44:18;9.70;90.60
26707;DHT22;14319;49.422;10.934;2022-10-12T03:46:19;9.60;90.70
26707;DHT22;14319;49.422;10.934;2022-10-12T03:48:20;9.70;91.00
26707;DHT22;14319;49.422;10.934;2022-10-12T03:50:21;9.70;90.40
26707;DHT22;14319;49.422;10.934;2022-10-12T03:52:21;9.70;90.30
26707;DHT22;14319;49.422;10.934;2022-10-12T03:54:22;9.60;90.10
26707;DHT22;14319;49.422;10.934;2022-10-12T03:56:23;9.60;90.10
26707;DHT22;14319;49.422;10.934;2022-10-12T03:58:24;9.50;90.50
26707;DHT22;14319;49.422;10.934;2022-10-12T04:00:26;9.40;90.40
26707;DHT22;14319;49.422;10.934;2022-10-12T04:02:27;9.40;90.90
26707;DHT22;14319;49.422;10.934;2022-10-12T04:04:27;9.40;90.40
26707;DHT22;14319;49.422;10.934;2022-10-12T04:06:28;9.50;90.20
26707;DHT22;14319;49.422;10.934;2022-10-12T04:08:29;9.40;89.90
26707;DHT22;14319;49.422;10.934;2022-10-12T04:10:30;9.30;89.80
26707;DHT22;14319;49.422;10.934;2022-10-12T04:12:30;9.30;90.60
26707;DHT22;14319;49.422;10.934;2022-10-12T04:14:31;9.40;90.90
26707;DHT22;14319;49.422;10.934;2022-10-12T04:16:32;9.50;90.70
26707;DHT22;14319;49.422;10.934;2022-10-12T04:18:33;9.50;89.80
26707;DHT22;14319;49.422;10.934;2022-10-12T04:20:34;9.50;89.70
26707;DHT22;14319;49.422;10.934;2022-10-12T04:22:34;9.40;90.10
26707;DHT22;14319;49.422;10.934;2022-10-12T04:24:35;9.30;89.90
26707;DHT22;14319;49.422;10.934;2022-10-12T04:26:36;9.40;90.50
26707;DHT22;14319;49.422;10.934;2022-10-12T04:28:37;9.30;90.40
26707;DHT22;14319;49.422;10.934;2022-10-12T04:30:37;9.20;89.70
26707;DHT22;14319;49.422;10.934;2022-10-12T04:32:38;9.10;90.70
26707;DHT22;14319;49.422;10.934;2022-10-12T04:34:39;9.00;90.90
26707;DHT22;14319;49.422;10.934;2022-10-12T04:36:39;9.00;90.70
26707;DHT22;14319;49.422;10.934;2022-10-12T04:38:40;9.10;91.00
26707;DHT22;14319;49.422;10.934;2022-10-12T04:40:44;9.00;90.70
26707;DHT22;14319;49.422;10.934;2022-10-12T04:42:45;9.10;90.80
26707;DHT22;14319;49.422;10.934;2022-10-12T04:44:46;9.20;90.90
26707;DHT22;14319;49.422;10.934;2022-10-12T04:46:46;9.20;89.90
26707;DHT22;14319;49.422;10.934;2022-10-12T04:48:47;9.30;90.10
26707;DHT22;14319;49.422;10.934;2022-10-12T04:50:48;9.30;89.40
26707;DHT22;14319;49.422;10.934;2022-10-12T04:52:49;9.30;89.90
26707;DHT22;14319;49.422;10.934;2022-10-12T04:54:50;9.40;90.00
26707;DHT22;14319;49.422;10.934;2022-10-12T04:56:50;9.30;89.60
26707;DHT22;14319;49.422;10.934;2022-10-12T04:58:51;9.20;90.20
26707;DHT22;14319;49.422;10.934;2022-10-12T05:00:52;9.00;90.20
26707;DHT22;14319;49.422;10.934;2022-10-12T05:02:52;8.90;90.40
26707;DHT22;14319;49.422;10.934;2022-10-12T05:04:53;9.00;91.20
26707;DHT22;14319;49.422;10.934;2022-10-12T05:06:54;9.10;91.60
26707;DHT22;14319;49.422;10.934;2022-10-12T05:08:55;9.20;90.70
26707;DHT22;14319;49.422;10.934;2022-10-12T05:10:55;9.20;90.50
26707;DHT22;14319;49.422;10.934;2022-10-12T05:12:58;9.30;90.70
26707;DHT22;14319;49.422;10.934;2022-10-12T05:14:59;9.40;90.60
26707;DHT22;14319;49.422;10.934;2022-10-12T05:17:00;9.40;90.10
26707;DHT22;14319;49.422;10.934;2022-10-12T05:19:01;9.30;90.40
26707;DHT22;14319;49.422;10.934;2022-10-12T05:21:01;9.30;91.40
26707;DHT22;14319;49.422;10.934;2022-10-12T05:23:02;9.20;91.50
26707;DHT22;14319;49.422;10.934;2022-10-12T05:25:03;9.20;91.90
26707;DHT22;14319;49.422;10.934;2022-10-12T05:27:05;9.20;92.10
26707;DHT22;14319;49.422;10.934;2022-10-12T05:29:06;9.30;91.90
26707;DHT22;14319;49.422;10.934;2022-10-12T05:31:07;9.30;90.40
26707;DHT22;14319;49.422;10.934;2022-10-12T05:33:07;9.20;90.20
26707;DHT22;14319;49.422;10.934;2022-10-12T05:35:08;9.10;91.30
26707;DHT22;14319;49.422;10.934;2022-10-12T05:37:09;9.10;91.70
26707;DHT22;14319;49.422;10.934;2022-10-12T05:39:10;9.20;91.60
26707;DHT22;14319;49.422;10.934;2022-10-12T05:41:11;9.30;91.90
26707;DHT22;14319;49.422;10.934;2022-10-12T05:43:11;9.50;91.90
26707;DHT22;14319;49.422;10.934;2022-10-12T05:45:12;9.50;91.70
26707;DHT22;14319;49.422;10.934;2022-10-12T05:47:13;9.60;91.70
26707;DHT22;14319;49.422;10.934;2022-10-12T05:49:14;9.50;91.50
26707;DHT22;14319;49.422;10.934;2022-10-12T05:51:15;9.40;91.60
26707;DHT22;14319;49.422;10.934;2022-10-12T05:53:15;9.30;91.00
26707;DHT22;14319;49.422;10.934;2022-10-12T05:55:16;9.10;90.50
26707;DHT22;14319;49.422;10.934;2022-10-12T05:57:16;9.10;91.70
26707;DHT22;14319;49.422;10.934;2022-10-12T05:59:17;9.20;92.20
26707;DHT22;14319;49.422;10.934;2022-10-12T06:01:18;9.20;92.60
26707;DHT22;14319;49.422;10.934;2022-10-12T06:03:19;9.30;93.30
26707;DHT22;14319;49.422;10.934;2022-10-12T06:05:20;9.30;92.80
26707;DHT22;14319;49.422;10.934;2022-10-12T06:07:21;9.50;92.00
26707;DHT22;14319;49.422;10.934;2022-10-12T06:09:22;9.60;91.90
26707;DHT22;14319;49.422;10.934;2022-10-12T06:11:22;9.60;91.00
26707;DHT22;14319;49.422;10.934;2022-10-12T06:13:23;9.80;91.40
26707;DHT22;14319;49.422;10.934;2022-10-12T06:15:24;9.90;91.10
26707;DHT22;14319;49.422;10.934;2022-10-12T06:17:25;10.00;90.70
26707;DHT22;14319;49.422;10.934;2022-10-12T06:19:26;10.00;90.30
26707;DHT22;14319;49.422;10.934;2022-10-12T06:21:27;10.10;90.50
26707;DHT22;14319;49.422;10.934;2022-10-12T06:23:27;10.10;89.90
26707;DHT22;14319;49.422;10.934;2022-10-12T06:25:28;10.20;89.80
26707;DHT22;14319;49.422;10.934;2022-10-12T06:27:29;10.20;89.60
26707;DHT22;14319;49.422;10.934;2022-10-12T06:29:29;10.30;89.80
26707;DHT22;14319;49.422;10.934;2022-10-12T06:31:30;10.30;89.70
26707;DHT22;14319;49.422;10.934;2022-10-12T06:33:33;10.30;89.90
26707;DHT22;14319;49.422;10.934;2022-10-12T06:35:34;10.30;90.00
26707;DHT22;14319;49.422;10.934;2022-10-12T06:37:34;10.20;90.70
26707;DHT22;14319;49.422;10.934;2022-10-12T06:39:35;10.10;91.40
26707;DHT22;14319;49.422;10.934;2022-10-12T06:41:36;10.20;91.20
26707;DHT22;14319;49.422;10.934;2022-10-12T06:43:42;10.20;90.20
26707;DHT22;14319;49.422;10.934;2022-10-12T06:45:42;9.90;90.60
26707;DHT22;14319;49.422;10.934;2022-10-12T06:47:43;9.80;91.30
26707;DHT22;14319;49.422;10.934;2022-10-12T06:49:44;9.70;92.10
26707;DHT22;14319;49.422;10.934;2022-10-12T06:51:45;9.80;92.30
26707;DHT22;14319;49.422;10.934;2022-10-12T06:53:46;9.80;91.90
26707;DHT22;14319;49.422;10.934;2022-10-12T06:55:47;9.70;94.00
26707;DHT22;14319;49.422;10.934;2022-10-12T06:57:48;9.80;91.80
26707;DHT22;14319;49.422;10.934;2022-10-12T06:59:49;9.80;91.40
26707;DHT22;14319;49.422;10.934;2022-10-12T07:01:50;9.80;91.40
26707;DHT22;14319;49.422;10.934;2022-10-12T07:03:50;10.00;91.60
26707;DHT22;14319;49.422;10.934;2022-10-12T07:05:51;10.20;90.80
26707;DHT22;14319;49.422;10.934;2022-10-12T07:07:51;10.30;90.50
26707;DHT22;14319;49.422;10.934;2022-10-12T07:09:53;10.40;90.60
26707;DHT22;14319;49.422;10.934;2022-10-12T07:11:54;10.40;89.00
26707;DHT22;14319;49.422;10.934;2022-10-12T07:13:56;10.40;90.00
26707;DHT22;14319;49.422;10.934;2022-10-12T07:15:57;10.60;89.70
26707;DHT22;14319;49.422;10.934;2022-10-12T07:17:58;10.80;89.10
26707;DHT22;14319;49.422;10.934;2022-10-12T07:19:58;10.80;88.90
26707;DHT22;14319;49.422;10.934;2022-10-12T07:21:59;10.90;88.90
26707;DHT22;14319;49.422;10.934;2022-10-12T07:24:00;11.00;88.80
26707;DHT22;14319;49.422;10.934;2022-10-12T07:26:01;11.00;88.50
26707;DHT22;14319;49.422;10.934;2022-10-12T07:28:01;11.10;88.50
26707;DHT22;14319;49.422;10.934;2022-10-12T07:30:05;11.20;87.80
26707;DHT22;14319;49.422;10.934;2022-10-12T07:32:06;11.20;86.90
26707;DHT22;14319;49.422;10.934;2022-10-12T07:34:07;11.00;87.70
26707;DHT22;14319;49.422;10.934;2022-10-12T07:36:08;11.00;87.60
26707;DHT22;14319;49.422;10.934;2022-10-12T07:38:08;10.90;89.40
26707;DHT22;14319;49.422;10.934;2022-10-12T07:40:10;11.00;89.30
26707;DHT22;14319;49.422;10.934;2022-10-12T07:42:11;11.00;88.30
26707;DHT22;14319;49.422;10.934;2022-10-12T07:44:11;10.60;89.90
26707;DHT22;14319;49.422;10.934;2022-10-12T07:46:12;10.40;91.70
26707;DHT22;14319;49.422;10.934;2022-10-12T07:48:13;10.50;91.90
26707;DHT22;14319;49.422;10.934;2022-10-12T07:50:14;10.40;91.00
26707;DHT22;14319;49.422;10.934;2022-10-12T07:52:15;10.20;92.10
26707;DHT22;14319;49.422;10.934;2022-10-12T07:54:16;10.30;93.00
26707;DHT22;14319;49.422;10.934;2022-10-12T07:56:17;10.30;92.40
26707;DHT22;14319;49.422;10.934;2022-10-12T07:58:17;10.30;91.50
26707;DHT22;14319;49.422;10.934;2022-10-12T08:00:18;10.20;91.80
26707;DHT22;14319;49.422;10.934;2022-10-12T08:02:21;10.20;93.10
26707;DHT22;14319;49.422;10.934;2022-10-12T08:04:22;10.40;92.00
26707;DHT22;14319;49.422;10.934;2022-10-12T08:06:24;10.40;92.90
26707;DHT22;14319;49.422;10.934;2022-10-12T08:08:25;10.50;92.00
26707;DHT22;14319;49.422;10.934;2022-10-12T08:10:26;10.50;91.90
26707;DHT22;14319;49.422;10.934;2022-10-12T08:12:27;10.60;91.60
26707;DHT22;14319;49.422;10.934;2022-10-12T08:14:27;10.60;91.60
26707;DHT22;14319;49.422;10.934;2022-10-12T08:16:28;10.90;91.90
26707;DHT22;14319;49.422;10.934;2022-10-12T08:18:29;11.10;90.50
26707;DHT22;14319;49.422;10.934;2022-10-12T08:20:30;11.30;90.40
26707;DHT22;14319;49.422;10.934;2022-10-12T08:22:30;11.50;88.90
26707;DHT22;14319;49.422;10.934;2022-10-12T08:24:31;11.70;88.30
26707;DHT22;14319;49.422;10.934;2022-10-12T08:26:34;11.90;87.80
26707;DHT22;14319;49.422;10.934;2022-10-12T08:28:35;11.90;87.30
26707;DHT22;14319;49.422;10.934;2022-10-12T08:30:37;11.90;87.10
26707;DHT22;14319;49.422;10.934;2022-10-12T08:32:37;11.80;88.90
26707;DHT22;14319;49.422;10.934;2022-10-12T08:34:38;12.10;87.90
26707;DHT22;14319;49.422;10.934;2022-10-12T08:36:39;12.20;86.40
26707;DHT22;14319;49.422;10.934;2022-10-12T08:38:40;12.00;85.90
26707;DHT22;14319;49.422;10.934;2022-10-12T08:40:57;12.20;85.80
26707;DHT22;14319;49.422;10.934;2022-10-12T08:43:03;12.30;86.10
26707;DHT22;14319;49.422;10.934;2022-10-12T08:47:12;12.20;86.60
26707;DHT22;14319;49.422;10.934;2022-10-12T08:49:19;12.20;87.20
26707;DHT22;14319;49.422;10.934;2022-10-12T08:51:22;12.20;87.00
26707;DHT22;14319;49.422;10.934;2022-10-12T08:55:33;12.30;87.70
26707;DHT22;14319;49.422;10.934;2022-10-12T08:57:35;12.30;87.20
26707;DHT22;14319;49.422;10.934;2022-10-12T08:59:36;12.30;87.40
26707;DHT22;14319;49.422;10.934;2022-10-12T09:01:38;12.50;87.90
26707;DHT22;14319;49.422;10.934;2022-10-12T09:06:13;12.60;87.60
26707;DHT22;14319;49.422;10.934;2022-10-12T09:08:14;12.50;87.80
26707;DHT22;14319;49.422;10.934;2022-10-12T09:14:34;12.40;89.10
26707;DHT22;14319;49.422;10.934;2022-10-12T09:16:38;12.40;89.00
26707;DHT22;14319;49.422;10.934;2022-10-12T09:18:42;12.40;89.00
26707;DHT22;14319;49.422;10.934;2022-10-12T09:20:47;12.40;90.10
26707;DHT22;14319;49.422;10.934;2022-10-12T09:22:56;12.50;88.80
26707;DHT22;14319;49.422;10.934;2022-10-12T09:24:59;12.50;88.80
26707;DHT22;14319;49.422;10.934;2022-10-12T09:27:11;12.70;88.30
26707;DHT22;14319;49.422;10.934;2022-10-12T09:30:14;12.80;87.80
26707;DHT22;14319;49.422;10.934;2022-10-12T09:34:03;12.90;87.90
26707;DHT22;14319;49.422;10.934;2022-10-12T09:36:05;13.00;87.40
26707;DHT22;14319;49.422;10.934;2022-10-12T09:38:06;13.10;87.30
26707;DHT22;14319;49.422;10.934;2022-10-12T09:40:14;13.30;86.90
26707;DHT22;14319;49.422;10.934;2022-10-12T09:42:16;13.40;86.00
26707;DHT22;14319;49.422;10.934;2022-10-12T09:44:25;13.30;86.70
26707;DHT22;14319;49.422;10.934;2022-10-12T09:46:38;13.30;86.90
26707;DHT22;14319;49.422;10.934;2022-10-12T09:48:54;13.30;86.80
26707;DHT22;14319;49.422;10.934;2022-10-12T09:51:02;13.50;86.50
26707;DHT22;14319;49.422;10.934;2022-10-12T09:53:07;13.40;85.90
26707;DHT22;14319;49.422;10.934;2022-10-12T09:57:18;13.30;86.20
26707;DHT22;14319;49.422;10.934;2022-10-12T09:59:29;13.40;87.40
26707;DHT22;14319;49.422;10.934;2022-10-12T10:01:33;13.30;87.10
26707;DHT22;14319;49.422;10.934;2022-10-12T10:03:34;13.30;87.50
26707;DHT22;14319;49.422;10.934;2022-10-12T10:05:35;13.20;88.60
26707;DHT22;14319;49.422;10.934;2022-10-12T10:07:36;13.30;88.80
26707;DHT22;14319;49.422;10.934;2022-10-12T10:09:37;13.50;88.40
26707;DHT22;14319;49.422;10.934;2022-10-12T10:11:38;13.60;87.80
26707;DHT22;14319;49.422;10.934;2022-10-12T10:13:42;13.70;87.90
26707;DHT22;14319;49.422;10.934;2022-10-12T10:15:45;14.00;87.40
26707;DHT22;14319;49.422;10.934;2022-10-12T10:17:47;14.20;86.40
26707;DHT22;14319;49.422;10.934;2022-10-12T10:19:49;14.40;86.00
26707;DHT22;14319;49.422;10.934;2022-10-12T10:21:51;14.40;84.60
26707;DHT22;14319;49.422;10.934;2022-10-12T10:23:59;14.40;85.50
26707;DHT22;14319;49.422;10.934;2022-10-12T10:26:05;14.60;84.50
26707;DHT22;14319;49.422;10.934;2022-10-12T10:28:26;14.60;84.60
26707;DHT22;14319;49.422;10.934;2022-10-12T10:30:28;14.80;84.70
26707;DHT22;14319;49.422;10.934;2022-10-12T10:32:28;14.90;84.20
26707;DHT22;14319;49.422;10.934;2022-10-12T10:34:30;14.90;84.30
26707;DHT22;14319;49.422;10.934;2022-10-12T10:36:31;14.90;84.70
26707;DHT22;14319;49.422;10.934;2022-10-12T10:38:46;15.00;83.80
26707;DHT22;14319;49.422;10.934;2022-10-12T10:40:51;15.10;83.40
26707;DHT22;14319;49.422;10.934;2022-10-12T10:42:57;15.20;83.20
26707;DHT22;14319;49.422;10.934;2022-10-12T10:45:02;15.40;82.60
26707;DHT22;14319;49.422;10.934;2022-10-12T10:47:08;15.50;82.20
26707;DHT22;14319;49.422;10.934;2022-10-12T10:49:18;15.50;82.70
26707;DHT22;14319;49.422;10.934;2022-10-12T10:51:20;15.50;83.30
26707;DHT22;14319;49.422;10.934;2022-10-12T10:53:22;15.50;82.60
26707;DHT22;14319;49.422;10.934;2022-10-12T10:55:41;15.50;81.50
26707;DHT22;14319;49.422;10.934;2022-10-12T10:57:47;15.40;82.20
26707;DHT22;14319;49.422;10.934;2022-10-12T10:59:52;15.40;83.00
26707;DHT22;14319;49.422;10.934;2022-10-12T11:01:55;15.50;82.30
26707;DHT22;14319;49.422;10.934;2022-10-12T11:04:02;15.60;82.00
26707;DHT22;14319;49.422;10.934;2022-10-12T11:06:09;15.50;82.30
26707;DHT22;14319;49.422;10.934;2022-10-12T11:10:20;15.40;83.10
26707;DHT22;14319;49.422;10.934;2022-10-12T11:12:33;15.30;83.10
26707;DHT22;14319;49.422;10.934;2022-10-12T11:14:48;15.40;83.30
26707;DHT22;14319;49.422;10.934;2022-10-12T11:16:52;15.20;83.60
26707;DHT22;14319;49.422;10.934;2022-10-12T11:18:56;15.20;83.60
26707;DHT22;14319;49.422;10.934;2022-10-12T11:21:04;15.20;84.00
26707;DHT22;14319;49.422;10.934;2022-10-12T11:25:39;14.90;84.00
26707;DHT22;14319;49.422;10.934;2022-10-12T11:27:43;14.80;84.80
26707;DHT22;14319;49.422;10.934;2022-10-12T11:29:43;14.80;86.00
26707;DHT22;14319;49.422;10.934;2022-10-12T11:31:59;15.00;84.60
26707;DHT22;14319;49.422;10.934;2022-10-12T11:34:03;15.10;85.10
26707;DHT22;14319;49.422;10.934;2022-10-12T11:36:05;15.20;84.10
26707;DHT22;14319;49.422;10.934;2022-10-12T11:40:22;15.50;82.90
26707;DHT22;14319;49.422;10.934;2022-10-12T11:42:30;15.60;83.50
26707;DHT22;14319;49.422;10.934;2022-10-12T11:44:39;15.70;83.00
26707;DHT22;14319;49.422;10.934;2022-10-12T11:46:45;15.80;82.60
26707;DHT22;14319;49.422;10.934;2022-10-12T11:48:51;15.80;82.00
26707;DHT22;14319;49.422;10.934;2022-10-12T11:50:53;15.80;81.90
26707;DHT22;14319;49.422;10.934;2022-10-12T11:52:56;15.80;82.40
26707;DHT22;14319;49.422;10.934;2022-10-12T11:56:59;15.80;82.00
26707;DHT22;14319;49.422;10.934;2022-10-12T11:59:03;16.00;82.20
26707;DHT22;14319;49.422;10.934;2022-10-12T12:03:24;16.10;81.70
26707;DHT22;14319;49.422;10.934;2022-10-12T12:05:29;16.10;82.20
26707;DHT22;14319;49.422;10.934;2022-10-12T12:09:43;16.30;81.90
26707;DHT22;14319;49.422;10.934;2022-10-12T12:11:44;16.40;81.30
26707;DHT22;14319;49.422;10.934;2022-10-12T12:13:44;16.50;80.70
26707;DHT22;14319;49.422;10.934;2022-10-12T12:18:08;16.60;79.30
26707;DHT22;14319;49.422;10.934;2022-10-12T12:22:30;16.80;78.50
26707;DHT22;14319;49.422;10.934;2022-10-12T12:24:31;16.70;79.00
26707;DHT22;14319;49.422;10.934;2022-10-12T12:26:31;16.60;78.30
26707;DHT22;14319;49.422;10.934;2022-10-12T12:28:33;16.40;79.80
26707;DHT22;14319;49.422;10.934;2022-10-12T12:30:35;16.30;79.30
26707;DHT22;14319;49.422;10.934;2022-10-12T12:34:47;16.20;80.30
26707;DHT22;14319;49.422;10.934;2022-10-12T12:36:50;16.20;79.30
26707;DHT22;14319;49.422;10.934;2022-10-12T12:38:51;16.00;80.50
26707;DHT22;14319;49.422;10.934;2022-10-12T12:40:53;16.00;81.10
26707;DHT22;14319;49.422;10.934;2022-10-12T12:43:17;16.00;80.90
26707;DHT22;14319;49.422;10.934;2022-10-12T12:47:37;15.90;81.40
26707;DHT22;14319;49.422;10.934;2022-10-12T12:51:39;15.70;81.50
26707;DHT22;14319;49.422;10.934;2022-10-12T12:55:58;15.70;82.30
26707;DHT22;14319;49.422;10.934;2022-10-12T12:58:07;15.70;83.00
26707;DHT22;14319;49.422;10.934;2022-10-12T13:00:20;15.80;82.20
26707;DHT22;14319;49.422;10.934;2022-10-12T13:02:32;15.70;81.90
26707;DHT22;14319;49.422;10.934;2022-10-12T13:09:35;15.70;82.00
26707;DHT22;14319;49.422;10.934;2022-10-12T13:13:48;15.70;81.90
26707;DHT22;14319;49.422;10.934;2022-10-12T13:16:15;15.80;82.70
26707;DHT22;14319;49.422;10.934;2022-10-12T13:20:36;15.90;82.30
26707;DHT22;14319;49.422;10.934;2022-10-12T13:22:37;15.80;82.10
26707;DHT22;14319;49.422;10.934;2022-10-12T13:24:42;15.80;82.30
26707;DHT22;14319;49.422;10.934;2022-10-12T13:26:46;15.80;83.10
26707;DHT22;14319;49.422;10.934;2022-10-12T13:28:48;15.80;83.30
26707;DHT22;14319;49.422;10.934;2022-10-12T13:31:36;15.80;82.30
26707;DHT22;14319;49.422;10.934;2022-10-12T13:35:13;15.90;83.30
26707;DHT22;14319;49.422;10.934;2022-10-12T13:37:15;16.00;83.20
26707;DHT22;14319;49.422;10.934;2022-10-12T13:39:17;15.90;82.90
26707;DHT22;14319;49.422;10.934;2022-10-12T13:41:18;15.80;82.90
26707;DHT22;14319;49.422;10.934;2022-10-12T13:43:26;15.80;82.60
26707;DHT22;14319;49.422;10.934;2022-10-12T13:45:28;15.70;83.00
26707;DHT22;14319;49.422;10.934;2022-10-12T13:47:29;15.70;83.90
26707;DHT22;14319;49.422;10.934;2022-10-12T13:49:31;15.70;83.30
26707;DHT22;14319;49.422;10.934;2022-10-12T13:51:32;15.60;83.90
26707;DHT22;14319;49.422;10.934;2022-10-12T13:53:35;15.70;84.20
26707;DHT22;14319;49.422;10.934;2022-10-12T13:55:36;15.70;83.70
26707;DHT22;14319;49.422;10.934;2022-10-12T13:57:38;15.70;83.90
26707;DHT22;14319;49.422;10.934;2022-10-12T13:59:40;15.40;84.00
26707;DHT22;14319;49.422;10.934;2022-10-12T14:01:54;15.40;85.60
26707;DHT22;14319;49.422;10.934;2022-10-12T14:04:04;15.50;85.00
26707;DHT22;14319;49.422;10.934;2022-10-12T14:06:05;15.50;85.30
26707;DHT22;14319;49.422;10.934;2022-10-12T14:08:09;15.50;84.70
26707;DHT22;14319;49.422;10.934;2022-10-12T14:10:14;15.20;84.70
26707;DHT22;14319;49.422;10.934;2022-10-12T14:12:15;15.20;85.50